La rose des vents
Donnes mto: Semaine 08/01/07 - 14/01/07 (S 2)
Date Horaire Temp. E. Hum. E. P.atmo. Pluie Vent 1mn Direction Ensoleilleme Ev.Tr. Solaire P. de rose Temp au vent Rafales
08/01/2007 00:00 7,5 C 83 % 1020,7 hPa 0,0 l/m 4,3 km/h (1 Bft) O-NO 0,00 h 0,025 mm 0 W/m 4,9 C 7,2 C 6,1 km/h (2 Bft)
08/01/2007 01:00 7,9 C 81 % 1020,0 hPa 0,0 l/m 3,3 km/h (1 Bft) O-NO 0,00 h 0,025 mm 0 W/m 4,9 C 7,8 C 4,7 km/h (1 Bft)
08/01/2007 02:00 7,9 C 82 % 1019,7 hPa 0,0 l/m 2,6 km/h (1 Bft) O-NO 0,00 h 0,025 mm 0 W/m 5,0 C 7,8 C 3,5 km/h (1 Bft)
08/01/2007 03:00 7,8 C 83 % 1019,5 hPa 0,0 l/m 0,7 km/h (0 Bft) O-NO 0,00 h 0,025 mm 0 W/m 5,0 C 7,8 C 1,4 km/h (1 Bft)
08/01/2007 04:00 7,6 C 85 % 1019,1 hPa 0,0 l/m 0,3 km/h (0 Bft) O-NO 0,00 h 0,025 mm 0 W/m 5,2 C 7,6 C 0,9 km/h (0 Bft)
08/01/2007 05:00 7,7 C 86 % 1018,9 hPa 0,0 l/m 0,9 km/h (0 Bft) O-NO 0,00 h 0,025 mm 0 W/m 5,4 C 7,6 C 1,7 km/h (1 Bft)
08/01/2007 06:00 7,3 C 86 % 1018,9 hPa 0,0 l/m 3,1 km/h (1 Bft) O 0,00 h 0,025 mm 0 W/m 5,2 C 7,1 C 4,5 km/h (1 Bft)
08/01/2007 07:00 7,4 C 87 % 1018,7 hPa 0,0 l/m 2,9 km/h (1 Bft) O 0,00 h 0,025 mm 0 W/m 5,3 C 7,2 C 4,2 km/h (1 Bft)
08/01/2007 08:00 7,7 C 86 % 1019,0 hPa 0,0 l/m 1,5 km/h (1 Bft) O-NO 0,00 h 0,000 mm 17 W/m 5,5 C 7,7 C 2,5 km/h (1 Bft)
08/01/2007 09:00 9,0 C 82 % 1019,0 hPa 0,0 l/m 0,9 km/h (0 Bft) NO 0,83 h 0,000 mm 163 W/m 6,1 C 9,0 C 1,8 km/h (1 Bft)
08/01/2007 10:00 11,3 C 77 % 1018,9 hPa 0,0 l/m 3,1 km/h (1 Bft) SO 0,83 h 0,076 mm 249 W/m 7,5 C 11,3 C 5,4 km/h (1 Bft)
08/01/2007 11:00 13,1 C 74 % 1018,4 hPa 0,0 l/m 8,6 km/h (2 Bft) S-SO 1,00 h 0,127 mm 341 W/m 8,6 C 13,1 C 12,4 km/h (3 Bft)
08/01/2007 12:00 13,9 C 74 % 1017,3 hPa 0,0 l/m 2,9 km/h (1 Bft) E-SE 1,00 h 0,203 mm 366 W/m 9,3 C 13,9 C 5,1 km/h (1 Bft)
08/01/2007 13:00 14,8 C 72 % 1016,2 hPa 0,0 l/m 3,4 km/h (1 Bft) E-NE 1,00 h 0,203 mm 352 W/m 9,7 C 14,8 C 5,5 km/h (1 Bft)
08/01/2007 14:00 16,2 C 60 % 1015,2 hPa 0,0 l/m 13,1 km/h (3 Bft) SO 1,00 h 0,203 mm 303 W/m 8,5 C 16,2 C 17,6 km/h (3 Bft)
08/01/2007 15:00 15,8 C 57 % 1014,9 hPa 0,0 l/m 18,6 km/h (3 Bft) SO 0,82 h 0,229 mm 167 W/m 7,3 C 15,8 C 24,7 km/h (4 Bft)
08/01/2007 16:00 14,4 C 60 % 1015,0 hPa 0,0 l/m 15,1 km/h (3 Bft) SO 0,17 h 0,203 mm 35 W/m 6,8 C 14,4 C 18,7 km/h (3 Bft)
08/01/2007 17:00 13,5 C 60 % 1015,0 hPa 0,0 l/m 10,2 km/h (2 Bft) O-SO 0,03 h 0,102 mm 7 W/m 6,0 C 13,5 C 14,8 km/h (3 Bft)
08/01/2007 18:00 13,1 C 62 % 1015,5 hPa 0,0 l/m 8,2 km/h (2 Bft) O-SO 0,00 h 0,051 mm 0 W/m 5,9 C 13,1 C 11,6 km/h (2 Bft)
08/01/2007 19:00 12,5 C 63 % 1015,9 hPa 0,0 l/m 1,3 km/h (1 Bft) S-SO 0,00 h 0,051 mm 0 W/m 5,5 C 12,5 C 2,6 km/h (1 Bft)
08/01/2007 20:00 11,8 C 67 % 1016,3 hPa 0,0 l/m 2,3 km/h (1 Bft) E 0,00 h 0,025 mm 0 W/m 5,8 C 11,8 C 4,1 km/h (1 Bft)
08/01/2007 21:00 10,8 C 82 % 1016,8 hPa 0,0 l/m 2,2 km/h (1 Bft) S-SE 0,00 h 0,025 mm 0 W/m 7,9 C 10,8 C 3,9 km/h (1 Bft)
08/01/2007 22:00 10,4 C 88 % 1017,2 hPa 0,0 l/m 3,6 km/h (1 Bft) O 0,00 h 0,025 mm 0 W/m 8,5 C 10,4 C 4,9 km/h (1 Bft)
08/01/2007 23:00 10,3 C 89 % 1017,5 hPa 0,0 l/m 3,3 km/h (1 Bft) O 0,00 h 0,025 mm 0 W/m 8,6 C 10,3 C 4,8 km/h (1 Bft)
09/01/2007 00:00 10,1 C 89 % 1017,4 hPa 0,0 l/m 3,4 km/h (1 Bft) O-NO 0,00 h 0,025 mm 0 W/m 8,3 C 10,1 C 4,7 km/h (1 Bft)
09/01/2007 01:00 10,2 C 88 % 1017,2 hPa 0,0 l/m 1,9 km/h (1 Bft) O-NO 0,00 h 0,025 mm 0 W/m 8,2 C 10,1 C 2,9 km/h (1 Bft)
09/01/2007 02:00 9,5 C 88 % 1017,2 hPa 0,0 l/m 1,8 km/h (1 Bft) O-NO 0,00 h 0,025 mm 0 W/m 7,6 C 9,5 C 3,3 km/h (1 Bft)
09/01/2007 03:00 8,6 C 88 % 1017,4 hPa 0,0 l/m 2,2 km/h (1 Bft) N 0,00 h 0,025 mm 0 W/m 6,8 C 8,6 C 4,4 km/h (1 Bft)
09/01/2007 04:00 8,3 C 89 % 1017,9 hPa 0,0 l/m 2,6 km/h (1 Bft) N 0,00 h 0,025 mm 0 W/m 6,6 C 8,2 C 5,0 km/h (1 Bft)
09/01/2007 05:00 9,4 C 86 % 1018,5 hPa 0,0 l/m 4,3 km/h (1 Bft) NO 0,00 h 0,025 mm 0 W/m 7,2 C 9,2 C 6,5 km/h (2 Bft)
09/01/2007 06:00 9,6 C 83 % 1019,1 hPa 0,0 l/m 4,7 km/h (1 Bft) NO 0,00 h 0,025 mm 0 W/m 6,9 C 9,3 C 7,1 km/h (2 Bft)
09/01/2007 07:00 9,7 C 84 % 1019,4 hPa 0,0 l/m 5,8 km/h (2 Bft) O-NO 0,00 h 0,025 mm 0 W/m 7,1 C 9,1 C 8,5 km/h (2 Bft)
09/01/2007 08:00 9,7 C 82 % 1019,9 hPa 0,0 l/m 4,1 km/h (1 Bft) O 0,00 h 0,025 mm 23 W/m 6,8 C 9,5 C 5,7 km/h (1 Bft)
09/01/2007 09:00 10,2 C 80 % 1020,9 hPa 0,0 l/m 3,7 km/h (1 Bft) NO 0,48 h 0,025 mm 110 W/m 6,9 C 10,1 C 5,7 km/h (1 Bft)
09/01/2007 10:00 12,9 C 73 % 1021,5 hPa 0,0 l/m 2,1 km/h (1 Bft) NO 0,92 h 0,076 mm 249 W/m 8,1 C 12,9 C 4,1 km/h (1 Bft)
09/01/2007 11:00 14,5 C 69 % 1022,1 hPa 0,0 l/m 5,8 km/h (2 Bft) S-SO 1,00 h 0,127 mm 327 W/m 8,9 C 14,5 C 8,4 km/h (2 Bft)
09/01/2007 12:00 14,9 C 69 % 1022,0 hPa 0,0 l/m 6,0 km/h (2 Bft) S-SE 1,00 h 0,203 mm 353 W/m 9,3 C 14,9 C 9,0 km/h (2 Bft)
09/01/2007 13:00 15,2 C 66 % 1021,6 hPa 0,0 l/m 3,3 km/h (1 Bft) S 1,00 h 0,203 mm 326 W/m 8,9 C 15,2 C 6,2 km/h (2 Bft)
09/01/2007 14:00 14,9 C 70 % 1021,5 hPa 0,0 l/m 6,9 km/h (2 Bft) S 1,00 h 0,178 mm 264 W/m 9,5 C 14,9 C 9,6 km/h (2 Bft)
09/01/2007 15:00 14,5 C 73 % 1022,0 hPa 0,0 l/m 3,0 km/h (1 Bft) S-SE 1,00 h 0,178 mm 169 W/m 9,8 C 14,5 C 5,1 km/h (1 Bft)
09/01/2007 16:00 13,3 C 78 % 1022,6 hPa 0,0 l/m 0,6 km/h (0 Bft) SE 0,80 h 0,102 mm 59 W/m 9,6 C 13,3 C 1,8 km/h (1 Bft)
09/01/2007 17:00 11,9 C 84 % 1023,1 hPa 0,0 l/m 0,2 km/h (0 Bft) SE 0,05 h 0,025 mm 7 W/m 9,3 C 11,9 C 0,7 km/h (0 Bft)
09/01/2007 18:00 10,9 C 88 % 1023,5 hPa 0,0 l/m 2,2 km/h (1 Bft) NO 0,00 h 0,000 mm 0 W/m 9,0 C 10,9 C 3,9 km/h (1 Bft)
09/01/2007 19:00 10,5 C 89 % 1023,8 hPa 0,0 l/m 2,1 km/h (1 Bft) O-NO 0,00 h 0,025 mm 0 W/m 8,7 C 10,5 C 3,6 km/h (1 Bft)
09/01/2007 20:00 9,9 C 89 % 1024,3 hPa 0,0 l/m 3,2 km/h (1 Bft) O-NO 0,00 h 0,025 mm 0 W/m 8,2 C 9,9 C 5,6 km/h (1 Bft)
09/01/2007 21:00 9,6 C 90 % 1024,4 hPa 0,0 l/m 3,9 km/h (1 Bft) O-NO 0,00 h 0,025 mm 0 W/m 8,1 C 9,4 C 6,1 km/h (2 Bft)
09/01/2007 22:00 9,7 C 88 % 1024,5 hPa 0,0 l/m 2,3 km/h (1 Bft) N-NO 0,00 h 0,025 mm 0 W/m 7,8 C 9,7 C 4,2 km/h (1 Bft)
09/01/2007 23:00 9,8 C 88 % 1024,7 hPa 0,0 l/m 5,0 km/h (1 Bft) N-NO 0,00 h 0,025 mm 0 W/m 7,9 C 9,5 C 7,2 km/h (2 Bft)
10/01/2007 00:00 10,3 C 86 % 1024,7 hPa 0,0 l/m 1,6 km/h (1 Bft) N 0,00 h 0,025 mm 0 W/m 8,1 C 10,3 C 3,1 km/h (1 Bft)
10/01/2007 01:00 10,0 C 85 % 1024,8 hPa 0,0 l/m 3,5 km/h (1 Bft) N-NO 0,00 h 0,025 mm 0 W/m 7,6 C 9,8 C 5,5 km/h (1 Bft)
10/01/2007 02:00 10,8 C 83 % 1025,0 hPa 0,0 l/m 3,3 km/h (1 Bft) N-NO 0,00 h 0,025 mm 0 W/m 8,1 C 10,8 C 6,0 km/h (2 Bft)
10/01/2007 03:00 11,3 C 81 % 1025,1 hPa 0,0 l/m 2,1 km/h (1 Bft) N-NO 0,00 h 0,025 mm 0 W/m 8,1 C 11,3 C 4,2 km/h (1 Bft)
10/01/2007 04:00 10,5 C 82 % 1025,1 hPa 0,0 l/m 3,9 km/h (1 Bft) N-NE 0,00 h 0,025 mm 0 W/m 7,6 C 10,5 C 6,1 km/h (2 Bft)
10/01/2007 05:00 9,7 C 85 % 1025,2 hPa 0,0 l/m 2,8 km/h (1 Bft) NE 0,00 h 0,025 mm 0 W/m 7,3 C 9,7 C 4,1 km/h (1 Bft)
10/01/2007 06:00 9,3 C 86 % 1025,7 hPa 0,0 l/m 3,0 km/h (1 Bft) NE 0,00 h 0,025 mm 0 W/m 7,1 C 9,3 C 4,9 km/h (1 Bft)
10/01/2007 07:00 9,2 C 86 % 1026,2 hPa 0,0 l/m 1,9 km/h (1 Bft) N-NE 0,00 h 0,025 mm 0 W/m 7,1 C 9,2 C 3,8 km/h (1 Bft)
10/01/2007 08:00 9,5 C 87 % 1026,5 hPa 0,0 l/m 0,3 km/h (0 Bft) N-NE 0,00 h 0,000 mm 19 W/m 7,5 C 9,5 C 0,6 km/h (0 Bft)
10/01/2007 09:00 9,9 C 87 % 1027,1 hPa 0,0 l/m 1,5 km/h (1 Bft) N 0,00 h 0,000 mm 55 W/m 7,7 C 9,9 C 2,9 km/h (1 Bft)
10/01/2007 10:00 11,0 C 82 % 1027,6 hPa 0,0 l/m 0,2 km/h (0 Bft) N 0,38 h 0,025 mm 157 W/m 8,0 C 11,0 C 0,7 km/h (0 Bft)
10/01/2007 11:00 13,3 C 75 % 1027,8 hPa 0,0 l/m 1,1 km/h (0 Bft) N-NE 0,77 h 0,076 mm 286 W/m 8,9 C 13,3 C 2,7 km/h (1 Bft)
10/01/2007 12:00 14,4 C 77 % 1027,2 hPa 0,0 l/m 2,0 km/h (1 Bft) E-NE 0,82 h 0,152 mm 333 W/m 10,4 C 14,4 C 3,7 km/h (1 Bft)
10/01/2007 13:00 15,2 C 76 % 1026,5 hPa 0,0 l/m 2,5 km/h (1 Bft) SE 1,00 h 0,178 mm 351 W/m 11,0 C 15,2 C 4,8 km/h (1 Bft)
10/01/2007 14:00 15,6 C 74 % 1026,3 hPa 0,0 l/m 3,3 km/h (1 Bft) E 1,00 h 0,178 mm 301 W/m 11,0 C 15,6 C 6,3 km/h (2 Bft)
10/01/2007 15:00 14,7 C 78 % 1026,3 hPa 0,0 l/m 1,7 km/h (1 Bft) S-SE 1,00 h 0,178 mm 181 W/m 11,0 C 14,7 C 3,7 km/h (1 Bft)
10/01/2007 16:00 13,5 C 84 % 1026,8 hPa 0,0 l/m 2,2 km/h (1 Bft) S-SE 0,45 h 0,102 mm 57 W/m 10,8 C 13,5 C 3,7 km/h (1 Bft)
10/01/2007 17:00 12,4 C 89 % 1027,2 hPa 0,0 l/m 4,1 km/h (1 Bft) S-SO 0,00 h 0,025 mm 5 W/m 10,7 C 12,4 C 5,6 km/h (1 Bft)
10/01/2007 18:00 11,8 C 92 % 1027,5 hPa 0,0 l/m 6,8 km/h (2 Bft) O-SO 0,00 h 0,000 mm 0 W/m 10,5 C 11,8 C 8,7 km/h (2 Bft)
10/01/2007 19:00 11,3 C 94 % 1027,7 hPa 0,0 l/m 5,9 km/h (2 Bft) O-SO 0,00 h 0,025 mm 0 W/m 10,3 C 11,3 C 7,7 km/h (2 Bft)
10/01/2007 20:00 10,7 C 94 % 1027,5 hPa 0,0 l/m 3,1 km/h (1 Bft) O-NO 0,00 h 0,025 mm 0 W/m 9,8 C 10,7 C 5,0 km/h (1 Bft)
10/01/2007 21:00 10,0 C 94 % 1027,6 hPa 0,0 l/m 4,1 km/h (1 Bft) NO 0,00 h 0,000 mm 0 W/m 9,1 C 9,9 C 6,2 km/h (2 Bft)
10/01/2007 22:00 9,4 C 94 % 1027,4 hPa 0,0 l/m 6,0 km/h (2 Bft) O-NO 0,00 h 0,000 mm 0 W/m 8,6 C 8,8 C 8,0 km/h (2 Bft)
10/01/2007 23:00 9,6 C 94 % 1027,3 hPa 0,0 l/m 11,8 km/h (2 Bft) O 0,00 h 0,025 mm 0 W/m 8,7 C 7,9 C 17,0 km/h (3 Bft)
11/01/2007 00:00 9,6 C 90 % 1026,7 hPa 0,0 l/m 11,4 km/h (2 Bft) O-SO 0,00 h 0,025 mm 0 W/m 8,1 C 7,9 C 16,2 km/h (3 Bft)
11/01/2007 01:00 9,1 C 86 % 1026,2 hPa 0,0 l/m 5,3 km/h (1 Bft) O-NO 0,00 h 0,025 mm 0 W/m 6,9 C 8,6 C 8,0 km/h (2 Bft)
11/01/2007 02:00 8,0 C 87 % 1026,2 hPa 0,2 l/m 2,3 km/h (1 Bft) O-NO 0,00 h 0,025 mm 0 W/m 6,0 C 7,9 C 3,6 km/h (1 Bft)
11/01/2007 03:00 7,6 C 89 % 1025,8 hPa 0,0 l/m 3,0 km/h (1 Bft) N-NO 0,00 h 0,025 mm 0 W/m 5,9 C 7,4 C 4,6 km/h (1 Bft)
11/01/2007 04:00 7,2 C 91 % 1025,4 hPa 0,0 l/m 1,6 km/h (1 Bft) NE 0,00 h 0,025 mm 0 W/m 5,8 C 7,2 C 2,9 km/h (1 Bft)
11/01/2007 05:00 7,9 C 89 % 1024,9 hPa 0,0 l/m 1,9 km/h (1 Bft) NO 0,00 h 0,000 mm 0 W/m 6,3 C 7,8 C 2,9 km/h (1 Bft)
11/01/2007 06:00 7,9 C 87 % 1025,2 hPa 0,0 l/m 1,5 km/h (1 Bft) NO 0,00 h 0,025 mm 0 W/m 6,0 C 7,9 C 2,3 km/h (1 Bft)
11/01/2007 07:00 7,8 C 86 % 1025,8 hPa 0,0 l/m 2,0 km/h (1 Bft) N-NO 0,00 h 0,025 mm 0 W/m 5,7 C 7,8 C 3,3 km/h (1 Bft)
11/01/2007 08:00 8,1 C 85 % 1026,2 hPa 0,0 l/m 0,9 km/h (0 Bft) N 0,75 h 0,000 mm 46 W/m 5,7 C 8,1 C 2,6 km/h (1 Bft)
11/01/2007 09:00 10,7 C 73 % 1026,3 hPa 0,0 l/m 0,0 km/h (0 Bft) N 1,00 h 0,025 mm 159 W/m 6,1 C 10,7 C 0,3 km/h (0 Bft)
11/01/2007 10:00 12,3 C 71 % 1026,4 hPa 0,0 l/m 1,1 km/h (1 Bft) NE 1,00 h 0,076 mm 276 W/m 7,2 C 12,3 C 2,7 km/h (1 Bft)
11/01/2007 11:00 13,7 C 73 % 1026,2 hPa 0,0 l/m 4,9 km/h (1 Bft) NE 1,00 h 0,152 mm 357 W/m 8,8 C 13,7 C 7,5 km/h (2 Bft)
11/01/2007 12:00 14,4 C 74 % 1025,5 hPa 0,0 l/m 4,5 km/h (1 Bft) E-NE 1,00 h 0,203 mm 401 W/m 9,8 C 14,4 C 7,3 km/h (2 Bft)
11/01/2007 13:00 14,3 C 75 % 1024,4 hPa 0,0 l/m 3,7 km/h (1 Bft) SE 0,80 h 0,229 mm 371 W/m 9,9 C 14,3 C 6,7 km/h (2 Bft)
11/01/2007 14:00 14,1 C 76 % 1024,0 hPa 0,0 l/m 4,3 km/h (1 Bft) E 0,83 h 0,203 mm 289 W/m 10,0 C 14,1 C 7,8 km/h (2 Bft)
11/01/2007 15:00 13,7 C 77 % 1023,7 hPa 0,0 l/m 0,9 km/h (0 Bft) SE 1,00 h 0,178 mm 187 W/m 9,8 C 13,7 C 2,4 km/h (1 Bft)
11/01/2007 16:00 12,7 C 81 % 1023,5 hPa 0,0 l/m 0,8 km/h (0 Bft) SE 0,83 h 0,102 mm 66 W/m 9,5 C 12,7 C 1,8 km/h (1 Bft)
11/01/2007 17:00 11,4 C 86 % 1023,0 hPa 0,0 l/m 2,5 km/h (1 Bft) SE 0,08 h 0,025 mm 8 W/m 9,2 C 11,4 C 3,5 km/h (1 Bft)
11/01/2007 18:00 10,7 C 88 % 1023,0 hPa 0,0 l/m 3,7 km/h (1 Bft) O-NO 0,00 h 0,000 mm 0 W/m 8,8 C 10,7 C 5,7 km/h (1 Bft)
11/01/2007 19:00 10,1 C 89 % 1022,8 hPa 0,0 l/m 2,0 km/h (1 Bft) NO 0,00 h 0,025 mm 0 W/m 8,4 C 10,1 C 3,8 km/h (1 Bft)
11/01/2007 20:00 9,9 C 89 % 1022,8 hPa 0,0 l/m 1,7 km/h (1 Bft) NO 0,00 h 0,025 mm 0 W/m 8,2 C 9,9 C 2,8 km/h (1 Bft)
11/01/2007 21:00 9,9 C 89 % 1022,3 hPa 0,0 l/m 2,2 km/h (1 Bft) NO 0,00 h 0,025 mm 0 W/m 8,1 C 9,8 C 4,1 km/h (1 Bft)
11/01/2007 22:00 10,0 C 88 % 1021,7 hPa 0,0 l/m 4,1 km/h (1 Bft) O-NO 0,00 h 0,025 mm 0 W/m 8,1 C 9,8 C 5,7 km/h (1 Bft)
11/01/2007 23:00 9,7 C 87 % 1021,2 hPa 0,0 l/m 4,8 km/h (1 Bft) O-NO 0,00 h 0,025 mm 0 W/m 7,6 C 9,5 C 6,5 km/h (2 Bft)
12/01/2007 00:00 8,9 C 87 % 1020,6 hPa 0,0 l/m 4,5 km/h (1 Bft) O-NO 0,00 h 0,025 mm 0 W/m 6,9 C 8,6 C 6,5 km/h (2 Bft)
12/01/2007 01:00 8,6 C 88 % 1020,1 hPa 0,0 l/m 3,8 km/h (1 Bft) NO 0,00 h 0,025 mm 0 W/m 6,8 C 8,3 C 5,6 km/h (1 Bft)
12/01/2007 02:00 8,6 C 88 % 1019,6 hPa 0,0 l/m 2,6 km/h (1 Bft) NO 0,00 h 0,025 mm 0 W/m 6,8 C 8,5 C 4,1 km/h (1 Bft)
12/01/2007 03:00 8,6 C 88 % 1019,3 hPa 0,0 l/m 4,1 km/h (1 Bft) O-NO 0,00 h 0,025 mm 0 W/m 6,8 C 8,4 C 5,7 km/h (1 Bft)
12/01/2007 04:00 8,5 C 89 % 1018,9 hPa 0,0 l/m 2,9 km/h (1 Bft) O-NO 0,00 h 0,025 mm 0 W/m 6,7 C 8,4 C 4,3 km/h (1 Bft)
12/01/2007 05:00 8,1 C 89 % 1019,0 hPa 0,0 l/m 2,6 km/h (1 Bft) O-NO 0,00 h 0,025 mm 0 W/m 6,4 C 8,1 C 4,3 km/h (1 Bft)
12/01/2007 06:00 8,1 C 89 % 1019,5 hPa 0,2 l/m 2,2 km/h (1 Bft) N 0,00 h 0,025 mm 0 W/m 6,5 C 8,1 C 4,1 km/h (1 Bft)
12/01/2007 07:00 8,9 C 91 % 1020,3 hPa 0,0 l/m 1,7 km/h (1 Bft) N 0,00 h 0,025 mm 0 W/m 7,5 C 8,8 C 3,5 km/h (1 Bft)
12/01/2007 08:00 9,6 C 92 % 1021,1 hPa 0,0 l/m 7,4 km/h (2 Bft) NO 0,70 h 0,000 mm 38 W/m 8,3 C 8,8 C 10,9 km/h (2 Bft)
12/01/2007 09:00 11,4 C 84 % 1021,6 hPa 0,0 l/m 4,4 km/h (1 Bft) O-NO 1,00 h 0,025 mm 164 W/m 8,8 C 11,4 C 7,1 km/h (2 Bft)
12/01/2007 10:00 13,8 C 74 % 1022,2 hPa 0,0 l/m 0,8 km/h (0 Bft) O 1,00 h 0,102 mm 243 W/m 9,2 C 13,8 C 2,1 km/h (1 Bft)
12/01/2007 11:00 15,1 C 71 % 1022,4 hPa 0,0 l/m 1,5 km/h (1 Bft) SO 1,00 h 0,127 mm 340 W/m 10,0 C 15,1 C 3,2 km/h (1 Bft)
12/01/2007 12:00 15,8 C 68 % 1022,2 hPa 0,0 l/m 2,3 km/h (1 Bft) S 1,00 h 0,178 mm 364 W/m 9,8 C 15,8 C 4,2 km/h (1 Bft)
12/01/2007 13:00 15,7 C 72 % 1021,9 hPa 0,0 l/m 4,3 km/h (1 Bft) E 1,00 h 0,203 mm 338 W/m 10,6 C 15,7 C 6,8 km/h (2 Bft)
12/01/2007 14:00 15,5 C 71 % 1021,7 hPa 0,0 l/m 1,9 km/h (1 Bft) E-SE 1,00 h 0,203 mm 286 W/m 10,3 C 15,5 C 3,7 km/h (1 Bft)
12/01/2007 15:00 14,9 C 74 % 1021,9 hPa 0,0 l/m 4,7 km/h (1 Bft) S 1,00 h 0,152 mm 181 W/m 10,3 C 14,9 C 6,7 km/h (2 Bft)
12/01/2007 16:00 14,0 C 78 % 1022,0 hPa 0,0 l/m 2,1 km/h (1 Bft) S-SO 0,65 h 0,127 mm 66 W/m 10,2 C 14,0 C 3,4 km/h (1 Bft)
12/01/2007 17:00 12,1 C 85 % 1022,5 hPa 0,0 l/m 0,2 km/h (0 Bft) S-SE 0,10 h 0,051 mm 9 W/m 9,7 C 12,1 C 0,8 km/h (0 Bft)
12/01/2007 18:00 11,0 C 90 % 1023,0 hPa 0,0 l/m 1,9 km/h (1 Bft) O-NO 0,00 h 0,000 mm 0 W/m 9,4 C 11,0 C 3,3 km/h (1 Bft)
12/01/2007 19:00 10,5 C 91 % 1023,6 hPa 0,0 l/m 1,0 km/h (0 Bft) O-NO 0,00 h 0,025 mm 0 W/m 9,1 C 10,5 C 2,0 km/h (1 Bft)
12/01/2007 20:00 10,4 C 92 % 1024,0 hPa 0,0 l/m 0,8 km/h (0 Bft) N 0,00 h 0,000 mm 0 W/m 9,1 C 10,4 C 2,0 km/h (1 Bft)
12/01/2007 21:00 10,3 C 92 % 1024,0 hPa 0,0 l/m 1,1 km/h (1 Bft) NO 0,00 h 0,000 mm 0 W/m 9,1 C 10,3 C 1,9 km/h (1 Bft)
12/01/2007 22:00 10,2 C 92 % 1024,0 hPa 0,0 l/m 1,1 km/h (1 Bft) NO 0,00 h 0,000 mm 0 W/m 8,9 C 10,2 C 1,8 km/h (1 Bft)
12/01/2007 23:00 10,2 C 91 % 1024,6 hPa 0,0 l/m 0,7 km/h (0 Bft) NO 0,00 h 0,000 mm 0 W/m 8,9 C 10,2 C 1,4 km/h (1 Bft)
13/01/2007 00:00 9,8 C 91 % 1024,8 hPa 0,0 l/m 1,6 km/h (1 Bft) NO 0,00 h 0,000 mm 0 W/m 8,4 C 9,8 C 2,8 km/h (1 Bft)
13/01/2007 01:00 9,9 C 92 % 1024,4 hPa 0,0 l/m 1,5 km/h (1 Bft) NO 0,00 h 0,000 mm 0 W/m 8,7 C 9,9 C 2,7 km/h (1 Bft)
13/01/2007 02:00 9,8 C 93 % 1024,4 hPa 0,2 l/m 3,2 km/h (1 Bft) N-NO 0,00 h 0,000 mm 0 W/m 8,7 C 9,7 C 4,9 km/h (1 Bft)
13/01/2007 03:00 9,2 C 93 % 1024,9 hPa 0,0 l/m 2,6 km/h (1 Bft) N 0,00 h 0,000 mm 0 W/m 8,1 C 9,1 C 4,1 km/h (1 Bft)
13/01/2007 04:00 8,9 C 93 % 1024,8 hPa 0,0 l/m 1,3 km/h (1 Bft) N 0,00 h 0,000 mm 0 W/m 7,9 C 8,9 C 2,6 km/h (1 Bft)
13/01/2007 05:00 10,0 C 93 % 1024,9 hPa 0,0 l/m 1,3 km/h (1 Bft) NO 0,00 h 0,000 mm 0 W/m 8,9 C 10,0 C 2,5 km/h (1 Bft)
13/01/2007 06:00 10,1 C 93 % 1025,4 hPa 0,0 l/m 2,0 km/h (1 Bft) N 0,00 h 0,000 mm 0 W/m 9,0 C 10,1 C 4,0 km/h (1 Bft)
13/01/2007 07:00 9,2 C 93 % 1025,8 hPa 0,0 l/m 4,5 km/h (1 Bft) NO 0,00 h 0,000 mm 5 W/m 8,1 C 8,9 C 6,7 km/h (2 Bft)
13/01/2007 08:00 9,1 C 93 % 1025,9 hPa 0,0 l/m 2,2 km/h (1 Bft) N-NO 0,72 h 0,000 mm 42 W/m 8,0 C 9,0 C 3,9 km/h (1 Bft)
13/01/2007 09:00 10,3 C 88 % 1027,0 hPa 0,0 l/m 1,5 km/h (1 Bft) N-NO 0,13 h 0,025 mm 94 W/m 8,5 C 10,3 C 2,9 km/h (1 Bft)
13/01/2007 10:00 12,6 C 81 % 1027,2 hPa 0,0 l/m 1,4 km/h (1 Bft) NE 0,83 h 0,051 mm 251 W/m 9,5 C 12,6 C 3,3 km/h (1 Bft)
13/01/2007 11:00 14,3 C 79 % 1027,0 hPa 0,0 l/m 7,2 km/h (2 Bft) E-NE 1,00 h 0,127 mm 369 W/m 10,7 C 14,3 C 10,3 km/h (2 Bft)
13/01/2007 12:00 14,2 C 79 % 1026,6 hPa 0,0 l/m 5,1 km/h (1 Bft) E 0,73 h 0,203 mm 323 W/m 10,7 C 14,2 C 8,4 km/h (2 Bft)
13/01/2007 13:00 13,9 C 80 % 1026,3 hPa 0,0 l/m 2,6 km/h (1 Bft) SE 0,52 h 0,178 mm 259 W/m 10,5 C 13,9 C 5,0 km/h (1 Bft)
13/01/2007 14:00 15,4 C 75 % 1025,8 hPa 0,0 l/m 2,6 km/h (1 Bft) E-SE 0,97 h 0,127 mm 373 W/m 11,0 C 15,4 C 5,2 km/h (1 Bft)
13/01/2007 15:00 14,5 C 79 % 1025,7 hPa 0,0 l/m 1,3 km/h (1 Bft) E-SE 1,00 h 0,203 mm 204 W/m 10,9 C 14,5 C 3,3 km/h (1 Bft)
13/01/2007 16:00 13,4 C 83 % 1025,5 hPa 0,0 l/m 0,2 km/h (0 Bft) SE 0,55 h 0,102 mm 66 W/m 10,5 C 13,4 C 1,4 km/h (1 Bft)
13/01/2007 17:00 11,9 C 88 % 1025,5 hPa 0,0 l/m 1,0 km/h (0 Bft) E-SE 0,00 h 0,025 mm 7 W/m 9,9 C 11,9 C 2,1 km/h (1 Bft)
13/01/2007 18:00 11,3 C 91 % 1025,9 hPa 0,0 l/m 0,2 km/h (0 Bft) E-SE 0,00 h 0,000 mm 0 W/m 9,9 C 11,3 C 1,1 km/h (0 Bft)
13/01/2007 19:00 11,5 C 91 % 1026,4 hPa 0,0 l/m 0,9 km/h (0 Bft) N 0,00 h 0,000 mm 0 W/m 10,1 C 11,5 C 1,7 km/h (1 Bft)
13/01/2007 20:00 11,7 C 89 % 1026,8 hPa 0,0 l/m 4,8 km/h (1 Bft) N-NO 0,00 h 0,000 mm 0 W/m 10,0 C 11,7 C 7,6 km/h (2 Bft)
13/01/2007 21:00 11,8 C 86 % 1026,7 hPa 0,0 l/m 3,8 km/h (1 Bft) N-NO 0,00 h 0,025 mm 0 W/m 9,6 C 11,8 C 6,2 km/h (2 Bft)
13/01/2007 22:00 11,7 C 85 % 1026,6 hPa 0,0 l/m 1,4 km/h (1 Bft) N 0,00 h 0,025 mm 0 W/m 9,2 C 11,7 C 3,2 km/h (1 Bft)
13/01/2007 23:00 11,3 C 85 % 1026,5 hPa 0,0 l/m 1,5 km/h (1 Bft) N 0,00 h 0,025 mm 0 W/m 8,9 C 11,3 C 2,7 km/h (1 Bft)
14/01/2007 00:00 11,2 C 83 % 1026,4 hPa 0,0 l/m 7,6 km/h (2 Bft) O-NO 0,00 h 0,025 mm 0 W/m 8,4 C 11,2 C 10,6 km/h (2 Bft)
14/01/2007 01:00 11,2 C 81 % 1026,0 hPa 0,0 l/m 9,3 km/h (2 Bft) O-NO 0,00 h 0,025 mm 0 W/m 7,9 C 11,2 C 12,2 km/h (3 Bft)
14/01/2007 02:00 11,0 C 80 % 1025,8 hPa 0,0 l/m 4,7 km/h (1 Bft) NO 0,00 h 0,025 mm 0 W/m 7,7 C 11,0 C 6,7 km/h (2 Bft)
14/01/2007 03:00 10,5 C 81 % 1025,5 hPa 0,0 l/m 0,6 km/h (0 Bft) NO 0,00 h 0,025 mm 0 W/m 7,3 C 10,5 C 1,4 km/h (1 Bft)
14/01/2007 04:00 10,3 C 81 % 1025,1 hPa 0,0 l/m 0,7 km/h (0 Bft) NO 0,00 h 0,025 mm 0 W/m 7,2 C 10,3 C 1,4 km/h (1 Bft)
14/01/2007 05:00 10,1 C 82 % 1024,8 hPa 0,0 l/m 0,7 km/h (0 Bft) O-SO 0,00 h 0,025 mm 0 W/m 7,1 C 10,1 C 1,2 km/h (1 Bft)
14/01/2007 06:00 9,7 C 83 % 1024,8 hPa 0,0 l/m 0,4 km/h (0 Bft) O 0,00 h 0,025 mm 0 W/m 7,0 C 9,7 C 1,2 km/h (1 Bft)
14/01/2007 07:00 9,5 C 85 % 1025,1 hPa 0,0 l/m 3,0 km/h (1 Bft) N 0,00 h 0,025 mm 0 W/m 7,1 C 9,4 C 5,2 km/h (1 Bft)
14/01/2007 08:00 9,7 C 86 % 1025,2 hPa 0,0 l/m 0,6 km/h (0 Bft) NE 0,00 h 0,000 mm 18 W/m 7,5 C 9,7 C 1,6 km/h (1 Bft)
14/01/2007 09:00 10,3 C 86 % 1025,5 hPa 0,0 l/m 1,3 km/h (1 Bft) N 0,00 h 0,000 mm 42 W/m 8,0 C 10,3 C 3,0 km/h (1 Bft)
14/01/2007 10:00 12,0 C 80 % 1025,9 hPa 0,0 l/m 1,9 km/h (1 Bft) N-NE 0,70 h 0,025 mm 208 W/m 8,6 C 12,0 C 4,2 km/h (1 Bft)
14/01/2007 11:00 13,8 C 74 % 1026,1 hPa 0,0 l/m 4,4 km/h (1 Bft) N-NE 0,42 h 0,102 mm 230 W/m 9,1 C 13,8 C 7,5 km/h (2 Bft)
14/01/2007 12:00 13,6 C 74 % 1025,8 hPa 0,0 l/m 5,1 km/h (1 Bft) N-NE 0,00 h 0,127 mm 166 W/m 9,0 C 13,6 C 7,9 km/h (2 Bft)
14/01/2007 13:00 14,0 C 75 % 1025,5 hPa 0,0 l/m 6,5 km/h (2 Bft) E-NE 0,32 h 0,102 mm 249 W/m 9,7 C 14,0 C 9,7 km/h (2 Bft)
14/01/2007 14:00 13,8 C 80 % 1025,2 hPa 0,0 l/m 6,3 km/h (2 Bft) E 0,12 h 0,152 mm 132 W/m 10,3 C 13,8 C 10,0 km/h (2 Bft)
14/01/2007 15:00 13,1 C 84 % 1025,5 hPa 0,0 l/m 3,8 km/h (1 Bft) E 0,00 h 0,076 mm 45 W/m 10,5 C 13,1 C 6,1 km/h (2 Bft)
14/01/2007 16:00 12,5 C 87 % 1025,7 hPa 0,0 l/m 4,1 km/h (1 Bft) E-NE 0,00 h 0,025 mm 18 W/m 10,4 C 12,5 C 6,0 km/h (2 Bft)
14/01/2007 17:00 12,1 C 87 % 1025,9 hPa 0,0 l/m 2,4 km/h (1 Bft) NE 0,00 h 0,025 mm 6 W/m 9,9 C 12,1 C 4,5 km/h (1 Bft)
14/01/2007 18:00 11,9 C 88 % 1026,5 hPa 0,0 l/m 2,6 km/h (1 Bft) E-NE 0,00 h 0,000 mm 0 W/m 9,9 C 11,9 C 4,2 km/h (1 Bft)
14/01/2007 19:00 11,9 C 88 % 1027,2 hPa 0,0 l/m 1,4 km/h (1 Bft) NE 0,00 h 0,025 mm 0 W/m 9,9 C 11,9 C 3,1 km/h (1 Bft)
14/01/2007 20:00 11,6 C 89 % 1027,5 hPa 0,0 l/m 0,2 km/h (0 Bft) NE 0,00 h 0,025 mm 0 W/m 9,9 C 11,6 C 1,0 km/h (0 Bft)
14/01/2007 21:00 11,6 C 89 % 1027,4 hPa 0,0 l/m 1,9 km/h (1 Bft) NE 0,00 h 0,000 mm 0 W/m 9,8 C 11,6 C 3,6 km/h (1 Bft)
14/01/2007 22:00 11,5 C 88 % 1027,5 hPa 0,0 l/m 2,9 km/h (1 Bft) NE 0,00 h 0,025 mm 0 W/m 9,6 C 11,5 C 5,1 km/h (1 Bft)
14/01/2007 23:00 11,0 C 87 % 1027,8 hPa 0,0 l/m 2,2 km/h (1 Bft) E-NE 0,00 h 0,025 mm 0 W/m 9,0 C 11,0 C 4,3 km/h (1 Bft)
Min-Date _ 11/01/07 08/01/07 08/01/07 - 08/01/07 - - - - 08/01/07 08/01/07 08/01/07
_ Min-Heure 04:27 14:37 17:00 - 02:20 - - - - 00:00 06:26 02:21
Minimum _ 6,9 C 55 % 1014,8 hPa - 0,0 km/h (0 Bft) - - - - 4,5 C 5,8 C 0,0 km/h (0 Bft)
Max-Date _ 08/01/07 10/01/07 10/01/07 11/01/07 08/01/07 - 08/01/07 08/01/07 11/01/07 10/01/07 08/01/07 08/01/07
_ Max-Heure 14:30 21:08 10:45 02:58 14:55 - 09:06 15:00 13:14 13:03 14:30 15:01
Maximum _ 16,5 C 95 % 1027,9 hPa 0,2 l/m 27,4 km/h
SO (4 Bft)
- 0,02 h 0,229 mm 503 W/m 11,6 C 16,5 C 35,4 km/h
SO (5 Bft)
Moyenne _ 11,2 C 83 % 1023,3 hPa #0,6 l/m 3,2 km/h (1 Bft) O-NO #44:06 h #9,340 mm 182 W/m 8,3 C 11,1 C 5,1 km/h (1 Bft)
Roquefort les pins